createdAt,value
2018-11-23T00:00:35.280Z,10.90
2018-11-23T00:03:38.363Z,11.07
2018-11-23T00:06:41.477Z,11.17
2018-11-23T00:09:44.668Z,11.13
2018-11-23T00:12:47.992Z,10.20
2018-11-23T00:15:51.056Z,10.97
2018-11-23T00:18:54.186Z,10.13
2018-11-23T00:21:57.345Z,10.40
2018-11-23T00:25:00.390Z,10.20
2018-11-23T00:28:03.494Z,10.13
2018-11-23T00:31:06.561Z,10.00
2018-11-23T00:34:09.614Z,10.37
2018-11-23T00:37:12.705Z,10.27
2018-11-23T00:40:19.545Z,10.37
2018-11-23T00:43:22.683Z,10.37
2018-11-23T00:46:25.840Z,10.80
2018-11-23T00:49:28.977Z,9.80
2018-11-23T00:52:32.065Z,10.37
2018-11-23T00:55:35.141Z,10.17
2018-11-23T00:58:38.220Z,9.75
2018-11-23T01:01:46.744Z,10.10
2018-11-23T01:04:49.792Z,10.07
2018-11-23T01:07:53.961Z,9.37
2018-11-23T01:10:57.061Z,9.73
2018-11-23T01:14:00.121Z,9.93
2018-11-23T01:17:03.204Z,10.27
2018-11-23T01:20:09.544Z,10.13
2018-11-23T01:23:12.617Z,10.17
2018-11-23T01:26:15.654Z,10.00
2018-11-23T01:29:18.717Z,9.70
2018-11-23T01:32:23.701Z,9.70
2018-11-23T01:35:26.791Z,10.07
2018-11-23T01:38:29.872Z,9.57
2018-11-23T01:41:33.009Z,9.47
2018-11-23T01:44:41.494Z,9.60
2018-11-23T01:47:44.540Z,9.93
2018-11-23T01:50:47.684Z,10.00
2018-11-23T01:53:50.742Z,10.40
2018-11-23T01:56:53.801Z,10.27
2018-11-23T01:59:56.842Z,10.43
2018-11-23T02:02:59.905Z,9.47
2018-11-23T02:06:03.072Z,10.07
2018-11-23T02:09:07.452Z,9.70
2018-11-23T02:12:10.541Z,9.93
2018-11-23T02:15:15.437Z,10.07
2018-11-23T02:18:18.505Z,9.73
2018-11-23T02:21:21.583Z,9.77
2018-11-23T02:24:24.699Z,10.60
2018-11-23T02:27:27.784Z,10.17
2018-11-23T02:30:30.901Z,9.87
2018-11-23T02:33:33.977Z,9.80
2018-11-23T02:36:37.093Z,9.60
2018-11-23T02:39:40.665Z,10.03
2018-11-23T02:42:44.036Z,9.90
2018-11-23T02:45:47.092Z,9.47
2018-11-23T02:48:50.182Z,9.90
2018-11-23T02:51:53.293Z,10.17
2018-11-23T02:54:56.390Z,10.63
2018-11-23T02:57:59.450Z,9.77
2018-11-23T03:01:02.643Z,10.00
2018-11-23T03:04:06.522Z,10.17
2018-11-23T03:07:09.597Z,9.70
2018-11-23T03:10:13.878Z,10.03
2018-11-23T03:13:16.976Z,10.00
2018-11-23T03:16:20.145Z,10.47
2018-11-23T03:19:23.258Z,10.03
2018-11-23T03:22:26.428Z,10.43
2018-11-23T03:25:29.558Z,9.93
2018-11-23T03:28:33.656Z,9.67
2018-11-23T03:31:36.762Z,9.60
2018-11-23T03:34:39.918Z,10.23
2018-11-23T03:37:43.153Z,9.57
2018-11-23T03:40:46.248Z,9.80
2018-11-23T03:43:49.362Z,9.50
2018-11-23T03:46:52.780Z,9.40
2018-11-23T03:49:55.871Z,10.47
2018-11-23T03:52:58.927Z,9.50
2018-11-23T03:56:02.009Z,10.43
2018-11-23T03:59:05.325Z,9.80
2018-11-23T04:02:08.501Z,9.60
2018-11-23T04:05:11.586Z,9.63
2018-11-23T04:08:14.644Z,9.20
2018-11-23T04:11:17.727Z,9.60
2018-11-23T04:14:20.913Z,9.57
2018-11-23T04:17:23.981Z,10.07
2018-11-23T04:20:27.078Z,9.13
2018-11-23T04:23:31.438Z,9.27
2018-11-23T04:26:34.497Z,9.90
2018-11-23T04:29:37.588Z,9.60
2018-11-23T04:32:40.649Z,9.13
2018-11-23T04:35:43.704Z,9.40
2018-11-23T04:38:46.741Z,9.43
2018-11-23T04:41:49.805Z,10.13
2018-11-23T04:44:52.860Z,9.77
2018-11-23T04:47:55.944Z,9.57
2018-11-23T04:50:59.026Z,9.50
2018-11-23T04:54:02.075Z,9.37
2018-11-23T04:57:05.560Z,9.80
2018-11-23T05:00:10.809Z,9.73
2018-11-23T05:03:13.969Z,10.43
2018-11-23T05:06:17.029Z,10.67
2018-11-23T05:09:20.111Z,9.83
2018-11-23T05:12:23.194Z,9.77
2018-11-23T05:15:26.253Z,10.07
2018-11-23T05:18:29.328Z,10.00
2018-11-23T05:21:32.428Z,10.28
2018-11-23T05:24:35.612Z,10.17
2018-11-23T05:27:38.703Z,11.07
2018-11-23T05:30:41.857Z,10.20
2018-11-23T05:33:44.909Z,9.53
2018-11-23T05:36:48.005Z,10.73
2018-11-23T05:39:51.057Z,10.00
2018-11-23T05:42:54.157Z,10.07
2018-11-23T05:45:57.229Z,10.50
2018-11-23T05:49:00.288Z,10.53
2018-11-23T05:52:03.377Z,10.07
2018-11-23T05:55:06.924Z,10.57
2018-11-23T05:58:10.065Z,11.30
2018-11-23T06:01:13.257Z,10.13
2018-11-23T06:04:16.417Z,10.27
2018-11-23T06:07:19.574Z,10.77
2018-11-23T06:10:23.151Z,11.40
2018-11-23T06:13:26.220Z,10.40
2018-11-23T06:16:29.297Z,10.60
2018-11-23T06:19:32.368Z,10.53
2018-11-23T06:22:35.478Z,11.28
2018-11-23T06:25:42.072Z,10.70
2018-11-23T06:28:45.190Z,10.43
2018-11-23T06:31:48.221Z,11.13
2018-11-23T06:34:51.270Z,10.53
2018-11-23T06:37:54.332Z,10.67
2018-11-23T06:40:57.460Z,11.10
2018-11-23T06:44:00.524Z,10.90
2018-11-23T06:47:03.623Z,11.67
2018-11-23T06:50:09.856Z,11.03
2018-11-23T06:53:12.923Z,11.37
2018-11-23T06:56:16.045Z,11.07
2018-11-23T06:59:19.107Z,12.00
2018-11-23T07:02:22.173Z,11.83
2018-11-23T07:05:25.245Z,11.30
2018-11-23T07:08:28.292Z,11.33
2018-11-23T07:11:31.336Z,11.12
2018-11-23T07:14:34.467Z,11.37
2018-11-23T07:17:37.512Z,11.73
2018-11-23T07:20:40.548Z,11.90
2018-11-23T07:23:43.720Z,11.20
2018-11-23T07:26:46.792Z,12.30
2018-11-23T07:29:49.845Z,11.13
2018-11-23T07:32:52.920Z,12.30
2018-11-23T07:35:56.020Z,11.97
2018-11-23T07:38:59.040Z,12.10
2018-11-23T07:42:12.004Z,11.17
2018-11-23T07:45:15.163Z,12.03
2018-11-23T07:48:18.233Z,12.53
2018-11-23T07:51:21.316Z,11.80
2018-11-23T07:54:24.393Z,11.57
2018-11-23T07:57:27.460Z,11.90
2018-11-23T08:00:30.537Z,12.50
2018-11-23T08:03:33.691Z,11.50
2018-11-23T08:06:36.778Z,12.27
2018-11-23T08:09:40.535Z,11.80
2018-11-23T08:12:44.854Z,11.93
2018-11-23T08:15:47.953Z,11.70
2018-11-23T08:18:51.048Z,11.77
2018-11-23T08:21:54.109Z,11.60
2018-11-23T08:24:57.288Z,12.13
2018-11-23T08:28:00.349Z,11.03
2018-11-23T08:31:03.440Z,11.67
2018-11-23T08:34:06.577Z,11.83
2018-11-23T08:37:09.767Z,11.57
2018-11-23T08:40:15.488Z,11.83
2018-11-23T08:43:18.544Z,11.47
2018-11-23T08:46:21.905Z,11.57
2018-11-23T08:49:25.060Z,11.60
2018-11-23T08:52:28.128Z,12.13
2018-11-23T08:55:31.184Z,11.27
2018-11-23T08:58:34.287Z,11.77
2018-11-23T09:01:37.348Z,11.60
2018-11-23T09:04:40.405Z,11.97
2018-11-23T09:07:44.399Z,11.90
2018-11-23T09:10:47.469Z,11.63
2018-11-23T09:13:50.596Z,11.87
2018-11-23T09:16:53.705Z,11.73
2018-11-23T09:19:56.810Z,11.77
2018-11-23T09:22:59.880Z,11.37
2018-11-23T09:26:02.950Z,11.63
2018-11-23T09:29:06.008Z,11.67
2018-11-23T09:32:09.108Z,12.07
2018-11-23T09:35:12.249Z,12.23
2018-11-23T09:38:15.480Z,12.33
2018-11-23T09:41:18.558Z,11.90
2018-11-23T09:44:21.787Z,12.20
2018-11-23T09:47:24.751Z,12.13
2018-11-23T09:50:28.157Z,11.83
2018-11-23T09:53:31.247Z,11.60
2018-11-23T09:56:34.332Z,12.30
2018-11-23T09:59:37.388Z,12.00
2018-11-23T10:02:40.780Z,11.70
2018-11-23T10:05:43.863Z,12.23
2018-11-23T10:08:46.954Z,11.27
2018-11-23T10:11:50.027Z,11.50
2018-11-23T10:14:53.470Z,11.90
2018-11-23T10:17:56.536Z,11.10
2018-11-23T10:20:59.705Z,11.73
2018-11-23T10:24:02.771Z,11.67
2018-11-23T10:27:05.811Z,11.83
2018-11-23T10:30:10.969Z,11.70
2018-11-23T10:33:14.018Z,11.40
2018-11-23T10:36:17.089Z,12.03
2018-11-23T10:39:20.167Z,11.37
2018-11-23T10:42:23.341Z,11.60
2018-11-23T10:45:27.804Z,11.17
2018-11-23T10:48:30.880Z,11.60
2018-11-23T10:51:34.134Z,11.27
2018-11-23T10:54:37.562Z,11.60
2018-11-23T10:57:40.949Z,12.20
2018-11-23T11:00:54.281Z,11.43
2018-11-23T11:04:02.932Z,12.03
2018-11-23T11:07:07.065Z,11.20
2018-11-23T11:10:10.809Z,11.93
2018-11-23T11:13:14.179Z,11.70
2018-11-23T11:16:17.640Z,11.53
2018-11-23T11:19:20.754Z,11.53
2018-11-23T11:22:24.179Z,10.97
2018-11-23T11:25:27.552Z,10.67
2018-11-23T11:28:31.127Z,11.13
2018-11-23T11:31:34.430Z,11.17
2018-11-23T11:34:37.896Z,12.03
2018-11-23T11:37:41.765Z,12.17
2018-11-23T11:40:45.187Z,11.47
2018-11-23T11:43:48.616Z,11.55
2018-11-23T11:46:52.369Z,11.67
2018-11-23T11:49:59.171Z,11.57
2018-11-23T11:52:58.937Z,12.37
2018-11-23T11:56:02.283Z,11.20
2018-11-23T11:59:05.778Z,11.53
2018-11-23T12:02:10.261Z,11.93
2018-11-23T12:05:13.273Z,11.67
2018-11-23T12:08:16.960Z,12.47
2018-11-23T12:11:20.746Z,13.30
2018-11-23T12:14:23.944Z,13.77
2018-11-23T12:17:27.593Z,13.80
2018-11-23T12:20:30.820Z,13.63
2018-11-23T12:23:34.572Z,14.10
2018-11-23T12:26:37.760Z,13.87
2018-11-23T12:29:41.097Z,13.73
2018-11-23T12:32:45.619Z,13.80
2018-11-23T12:35:49.009Z,13.07
2018-11-23T12:38:52.211Z,13.53
2018-11-23T12:41:55.244Z,13.47
2018-11-23T12:44:58.354Z,13.63
2018-11-23T12:48:01.469Z,14.47
2018-11-23T12:51:04.556Z,15.07
2018-11-23T12:54:07.688Z,14.57
2018-11-23T12:57:10.835Z,14.00
2018-11-23T13:00:19.462Z,14.03
2018-11-23T13:03:22.608Z,13.53
2018-11-23T13:06:25.673Z,13.73
2018-11-23T13:09:28.773Z,14.10
2018-11-23T13:12:31.925Z,13.53
2018-11-23T13:15:35.000Z,14.27
2018-11-23T13:18:38.074Z,14.47
2018-11-23T13:21:41.150Z,13.73
2018-11-23T13:24:44.312Z,13.63
2018-11-23T13:27:47.433Z,13.30
2018-11-23T13:30:50.663Z,14.27
2018-11-23T13:33:54.468Z,13.37
2018-11-23T13:36:57.573Z,13.47
2018-11-23T13:40:00.717Z,13.10
2018-11-23T13:43:03.842Z,14.37
2018-11-23T13:46:06.984Z,14.13
2018-11-23T13:49:10.067Z,14.40
2018-11-23T13:52:14.173Z,14.53
2018-11-23T13:55:17.374Z,14.63
2018-11-23T13:58:20.517Z,14.07
2018-11-23T14:01:23.711Z,14.20
2018-11-23T14:04:26.880Z,14.73
2018-11-23T14:07:30.144Z,14.90
2018-11-23T14:10:33.304Z,14.47
2018-11-23T14:13:36.422Z,14.73
2018-11-23T14:16:39.567Z,14.17
2018-11-23T14:19:42.728Z,14.57
2018-11-23T14:22:45.854Z,14.53
2018-11-23T14:25:49.039Z,15.23
2018-11-23T14:28:52.270Z,14.97
2018-11-23T14:31:55.370Z,14.03
2018-11-23T14:34:58.422Z,15.07
2018-11-23T14:38:01.992Z,14.37
2018-11-23T14:41:05.075Z,13.97
2018-11-23T14:44:08.168Z,13.83
2018-11-23T14:47:11.233Z,13.98
2018-11-23T14:50:17.296Z,14.07
2018-11-23T14:53:20.349Z,14.18
2018-11-23T14:56:23.525Z,13.77
2018-11-23T14:59:26.598Z,13.63
2018-11-23T15:02:29.708Z,13.37
2018-11-23T15:05:32.972Z,13.30
2018-11-23T15:08:36.037Z,13.50
2018-11-23T15:11:39.716Z,13.40
2018-11-23T15:14:42.802Z,12.63
2018-11-23T15:17:47.082Z,27.97
2018-11-23T15:20:50.270Z,32.70
2018-11-23T15:23:53.376Z,31.00
2018-11-23T15:26:56.560Z,31.40
2018-11-23T15:29:59.708Z,31.70
2018-11-23T15:33:03.436Z,31.10
2018-11-23T15:36:06.657Z,39.77
2018-11-23T15:39:11.523Z,39.73
2018-11-23T15:42:14.691Z,33.23
2018-11-23T15:45:19.359Z,30.60
2018-11-23T15:48:22.504Z,28.20
2018-11-23T15:51:25.770Z,25.37
2018-11-23T15:54:28.820Z,26.00
2018-11-23T15:57:31.880Z,23.50
2018-11-23T16:00:37.206Z,22.03
2018-11-23T16:03:40.253Z,21.43
2018-11-23T16:06:43.357Z,20.50
2018-11-23T16:09:46.424Z,19.57
2018-11-23T16:12:51.542Z,18.13
2018-11-23T16:15:54.608Z,19.73
2018-11-23T16:18:57.684Z,18.77
2018-11-23T16:22:00.742Z,18.43
2018-11-23T16:25:03.852Z,17.83
2018-11-23T16:28:08.142Z,17.50
2018-11-23T16:31:11.194Z,16.53
2018-11-23T16:34:14.231Z,16.30
2018-11-23T16:37:17.395Z,17.03
2018-11-23T16:40:22.205Z,17.57
2018-11-23T16:43:25.346Z,18.10
2018-11-23T16:46:28.452Z,16.20
2018-11-23T16:49:31.540Z,16.10
2018-11-23T16:52:34.696Z,15.73
2018-11-23T16:55:37.785Z,29.97
2018-11-23T16:58:40.959Z,33.80
2018-11-23T17:01:44.064Z,32.13
2018-11-23T17:04:47.187Z,30.43
2018-11-23T17:07:50.300Z,25.83
2018-11-23T17:10:53.436Z,25.25
2018-11-23T17:13:56.507Z,25.50
2018-11-23T17:16:59.592Z,25.60
2018-11-23T17:20:02.720Z,24.20
2018-11-23T17:23:07.067Z,25.23
2018-11-23T17:26:10.181Z,25.80
2018-11-23T17:29:13.389Z,25.37
2018-11-23T17:32:17.546Z,25.83
2018-11-23T17:35:20.957Z,27.50
2018-11-23T17:38:24.079Z,88.63
2018-11-23T17:41:27.233Z,71.53
2018-11-23T17:44:31.140Z,57.30
2018-11-23T17:47:34.237Z,55.53
2018-11-23T17:50:38.218Z,50.80
2018-11-23T17:53:42.517Z,46.57
2018-11-23T17:56:46.321Z,45.40
2018-11-23T17:59:50.453Z,42.93
2018-11-23T18:02:55.677Z,41.60
2018-11-23T18:05:58.806Z,39.47
2018-11-23T18:09:02.078Z,35.70
2018-11-23T18:12:05.170Z,34.83
2018-11-23T18:15:10.056Z,33.03
2018-11-23T18:18:13.614Z,32.47
2018-11-23T18:21:16.729Z,31.93
2018-11-23T18:24:19.855Z,29.20
2018-11-23T18:27:23.016Z,28.53
2018-11-23T18:30:26.232Z,27.80
2018-11-23T18:33:29.366Z,26.77
2018-11-23T18:36:32.494Z,26.00
2018-11-23T18:39:35.660Z,25.93
2018-11-23T18:42:38.812Z,24.77
2018-11-23T18:45:41.973Z,24.50
2018-11-23T18:48:45.094Z,23.33
2018-11-23T18:51:48.215Z,22.23
2018-11-23T18:54:51.325Z,21.73
2018-11-23T18:57:54.720Z,21.27
2018-11-23T19:00:57.885Z,20.03
2018-11-23T19:04:01.091Z,20.17
2018-11-23T19:07:04.301Z,18.83
2018-11-23T19:10:09.558Z,19.50
2018-11-23T19:13:13.331Z,19.93
2018-11-23T19:16:17.464Z,19.43
2018-11-23T19:19:21.634Z,18.20
2018-11-23T19:22:24.809Z,18.27
2018-11-23T19:25:28.051Z,17.43
2018-11-23T19:28:31.128Z,18.10
2018-11-23T19:31:34.602Z,16.67
2018-11-23T19:34:37.840Z,16.83
2018-11-23T19:37:41.033Z,16.83
2018-11-23T19:40:44.136Z,17.20
2018-11-23T19:43:47.261Z,16.33
2018-11-23T19:46:50.737Z,16.53
2018-11-23T19:49:53.903Z,17.63
2018-11-23T19:52:57.048Z,16.70
2018-11-23T19:56:00.144Z,16.83
2018-11-23T19:59:03.219Z,16.60
2018-11-23T20:02:07.297Z,14.90
2018-11-23T20:05:10.420Z,15.20
2018-11-23T20:08:13.626Z,15.63
2018-11-23T20:11:16.812Z,15.73
2018-11-23T20:14:20.257Z,15.70
2018-11-23T20:17:23.464Z,14.07
2018-11-23T20:20:26.645Z,15.57
2018-11-23T20:23:29.840Z,14.20
2018-11-23T20:26:33.039Z,14.40
2018-11-23T20:29:36.197Z,14.27
2018-11-23T20:32:39.363Z,14.53
2018-11-23T20:35:42.533Z,14.47
2018-11-23T20:38:45.698Z,13.97
2018-11-23T20:41:48.925Z,14.77
2018-11-23T20:44:52.161Z,15.07
2018-11-23T20:47:55.330Z,15.30
2018-11-23T20:50:58.489Z,14.53
2018-11-23T20:54:01.622Z,14.90
2018-11-23T20:57:04.746Z,14.40
2018-11-23T21:03:54.994Z,14.70
2018-11-23T21:06:58.153Z,16.17
2018-11-23T21:10:01.218Z,14.50
2018-11-23T21:13:04.344Z,14.77
2018-11-23T21:16:07.521Z,14.83
2018-11-23T21:19:10.655Z,15.70
2018-11-23T21:22:13.786Z,15.32
2018-11-23T21:25:17.763Z,16.02
2018-11-23T21:28:20.910Z,15.10
2018-11-23T21:31:24.081Z,15.13
2018-11-23T21:34:27.258Z,16.23
2018-11-23T21:37:30.340Z,15.63
2018-11-23T21:40:33.558Z,15.30
2018-11-23T21:43:36.673Z,15.23
2018-11-23T21:46:39.971Z,14.85
2018-11-23T21:49:43.054Z,15.93
2018-11-23T21:52:46.241Z,14.77
2018-11-23T21:55:49.830Z,15.23
2018-11-23T21:58:52.991Z,15.30
2018-11-23T22:01:56.166Z,14.80
2018-11-23T22:04:59.333Z,14.47
2018-11-23T22:08:02.393Z,14.13
2018-11-23T22:11:06.029Z,14.80
2018-11-23T22:14:09.167Z,15.27
2018-11-23T22:17:12.332Z,16.53
2018-11-23T22:20:16.541Z,16.50
2018-11-23T22:23:19.638Z,16.50
2018-11-23T22:26:22.834Z,16.90
2018-11-23T22:29:26.154Z,16.00
2018-11-23T22:32:29.345Z,16.00
2018-11-23T22:35:32.531Z,15.97
2018-11-23T22:38:35.701Z,16.10
2018-11-23T22:41:38.965Z,16.47
2018-11-23T22:44:42.114Z,15.93
2018-11-23T22:47:45.357Z,16.07
2018-11-23T22:50:48.804Z,15.37
2018-11-23T22:53:51.969Z,15.93
2018-11-23T22:56:55.138Z,15.80
2018-11-23T22:59:58.980Z,13.90
2018-11-23T23:03:02.199Z,14.27
2018-11-23T23:06:05.454Z,22.87
2018-11-23T23:09:09.776Z,95.97
2018-11-23T23:12:13.023Z,67.43
2018-11-23T23:15:16.267Z,71.60
2018-11-23T23:18:19.492Z,56.77
2018-11-23T23:21:23.831Z,49.77
2018-11-23T23:24:27.066Z,43.47
2018-11-23T23:27:30.452Z,39.63
2018-11-23T23:30:33.651Z,34.33
2018-11-23T23:33:37.012Z,32.97
2018-11-23T23:36:40.232Z,31.00
2018-11-23T23:39:43.553Z,28.53
2018-11-23T23:42:47.584Z,26.73
2018-11-23T23:45:50.735Z,26.33
2018-11-23T23:48:54.049Z,24.90
2018-11-23T23:51:57.163Z,22.57
2018-11-23T23:55:00.385Z,43.23
2018-11-23T23:58:03.761Z,71.23
